Time;durP1;ratioP1;P1;durP2;ratioP2;P2;SDS_P1;SDS_P2;PMS_P1;PMS_P2;Temp;Humidity;BMP_temperature;BMP_pressure;BME280_temperature;BME280_humidity;BME280_pressure;Samples;Min_cycle;Max_cycle;Signal;HPM_P1;HPM_P2
2022/03/30 00:03:23;;;;;;;;;;;12.90;99.90;;;;;;4972907;28;20494;-91
2022/03/30 00:12:44;;;;;;;;;;;12.80;99.90;;;;;;4933427;29;19918;-91
2022/03/30 00:18:45;;;;;;;;;;;;;;;;;;;;;
2022/03/30 00:24:49;;;;;;;;;;;;;;;;;;;;;
2022/03/30 00:28:09;;;;;;;;;;;;;;;;;;;;;
2022/03/30 00:47:36;;;;;;;;;;;;;;;;;;;;;
2022/03/30 01:02:33;;;;;;;;;;;;;;;;;;;;;
2022/03/30 01:08:37;;;;;;;;;;;12.70;99.90;;;;;;4784545;30;20379;-93
2022/03/30 01:15:07;;;;;;;;;;;;;;;;;;;;;
2022/03/30 01:28:29;;;;;;;;;;;;;;;;;;;;;
2022/03/30 01:34:07;;;;;;;;;;;;;;;;;;;;;
2022/03/30 02:02:51;;;;;;;;;;;;;;;;;;;;;
2022/03/30 02:19:15;;;;;;;;;;;;;;;;;;;;;
2022/03/30 03:00:53;;;;;;;;;;;;;;;;;;;;;
2022/03/30 03:06:34;;;;;;;;;;;12.70;99.90;;;;;;4804542;29;19955;-96
2022/03/30 03:09:34;;;;;;;;;;;12.70;99.90;;;;;;4767468;30;19947;-95
2022/03/30 03:15:53;;;;;;;;;;;12.60;99.90;;;;;;4780201;29;19952;-96
2022/03/30 05:29:18;;;;;;;;;;;12.40;99.90;;;;;;4954796;23;19949;-93
2022/03/30 05:32:03;;;;;;;;;;;;;;;;;;;;;
2022/03/30 05:34:29;;;;;;;;;;;12.40;99.90;;;;;;4937841;29;19911;-94
2022/03/30 05:36:56;;;;;;;;;;;12.50;99.90;;;;;;4956427;29;20386;-91
2022/03/30 05:39:22;;;;;;;;;;;12.40;99.90;;;;;;4949153;29;20346;-92
2022/03/30 05:41:48;;;;;;;;;;;12.40;99.90;;;;;;4936996;29;19918;-91
2022/03/30 05:44:13;;;;;;;;;;;12.40;99.90;;;;;;4935505;29;19911;-91
2022/03/30 05:46:39;;;;;;;;;;;12.40;99.90;;;;;;4935436;29;19910;-91
2022/03/30 05:49:05;;;;;;;;;;;12.40;99.90;;;;;;4936526;29;19935;-92
2022/03/30 05:51:31;;;;;;;;;;;12.40;99.90;;;;;;4935300;29;19993;-92
2022/03/30 05:53:57;;;;;;;;;;;12.40;99.90;;;;;;4943133;29;19907;-91
2022/03/30 05:57:00;;;;;;;;;;;12.40;99.90;;;;;;4941193;29;19915;-91
2022/03/30 05:59:08;;;;;;;;;;;12.30;99.90;;;;;;4939034;29;19922;-91
2022/03/30 06:01:34;;;;;;;;;;;12.30;99.90;;;;;;4936868;29;19915;-91
2022/03/30 06:04:00;;;;;;;;;;;12.40;99.90;;;;;;4939018;29;19915;-92
2022/03/30 06:06:25;;;;;;;;;;;12.40;99.90;;;;;;4951844;29;19994;-91
2022/03/30 06:08:51;;;;;;;;;;;12.30;99.90;;;;;;4940109;29;19906;-92
2022/03/30 06:11:16;;;;;;;;;;;12.30;99.90;;;;;;4948623;29;20233;-91
2022/03/30 06:13:42;;;;;;;;;;;12.40;99.90;;;;;;4938443;29;19998;-91
2022/03/30 06:16:08;;;;;;;;;;;12.40;99.90;;;;;;4939975;29;20001;-92
2022/03/30 06:18:33;;;;;;;;;;;12.30;99.90;;;;;;4937332;29;19918;-92
2022/03/30 06:20:59;;;;;;;;;;;12.30;99.90;;;;;;4935535;29;19911;-91
2022/03/30 06:23:26;;;;;;;;;;;12.30;99.90;;;;;;4938962;29;19915;-91
2022/03/30 06:25:53;;;;;;;;;;;12.30;99.90;;;;;;4938464;29;19911;-90
2022/03/30 06:28:22;;;;;;;;;;;12.40;99.90;;;;;;4935026;29;20013;-91
2022/03/30 06:30:48;;;;;;;;;;;12.50;99.90;;;;;;4938773;29;19950;-90
2022/03/30 06:33:14;;;;;;;;;;;12.60;99.90;;;;;;4937506;29;20272;-91
2022/03/30 06:35:40;;;;;;;;;;;12.60;99.90;;;;;;4938741;29;19914;-90
2022/03/30 06:38:05;;;;;;;;;;;12.50;99.90;;;;;;4938394;29;19923;-90
2022/03/30 06:40:32;;;;;;;;;;;12.50;99.90;;;;;;4935211;29;19946;-90
2022/03/30 06:43:00;;;;;;;;;;;12.40;99.90;;;;;;4934787;29;20351;-90
2022/03/30 06:45:26;;;;;;;;;;;12.40;99.90;;;;;;4934669;29;19994;-90
2022/03/30 06:47:51;;;;;;;;;;;12.40;99.90;;;;;;4934720;29;20002;-90
2022/03/30 06:50:19;;;;;;;;;;;12.50;99.90;;;;;;4934389;29;20355;-90
2022/03/30 06:52:44;;;;;;;;;;;12.50;99.90;;;;;;4934234;29;19954;-90
2022/03/30 06:55:12;;;;;;;;;;;12.60;99.90;;;;;;4934339;29;19957;-90
2022/03/30 06:57:38;;;;;;;;;;;12.50;99.90;;;;;;4950240;29;19953;-90
2022/03/30 07:00:05;;;;;;;;;;;12.50;99.90;;;;;;4935614;29;19950;-90
2022/03/30 07:02:31;;;;;;;;;;;12.60;99.90;;;;;;4934449;29;19953;-90
2022/03/30 07:04:56;;;;;;;;;;;12.70;99.90;;;;;;4934356;29;20392;-91
2022/03/30 07:10:15;;;;;;;;;;;12.80;99.90;;;;;;4936096;29;20001;-90
2022/03/30 07:12:40;;;;;;;;;;;12.80;99.90;;;;;;4934368;29;19914;-90
2022/03/30 07:15:06;;;;;;;;;;;12.80;99.90;;;;;;4935457;29;19944;-90
2022/03/30 07:17:33;;;;;;;;;;;12.80;99.90;;;;;;4934658;29;19911;-90
2022/03/30 07:19:59;;;;;;;;;;;12.80;99.90;;;;;;4934433;29;19958;-90
2022/03/30 07:22:24;;;;;;;;;;;12.80;99.90;;;;;;4934241;29;20381;-90
2022/03/30 07:24:50;;;;;;;;;;;12.80;99.90;;;;;;4934166;29;19911;-90
2022/03/30 07:27:16;;;;;;;;;;;12.90;99.90;;;;;;4935296;29;19928;-90
2022/03/30 07:29:41;;;;;;;;;;;12.80;99.90;;;;;;4933844;29;20544;-90
2022/03/30 07:32:07;;;;;;;;;;;12.80;99.90;;;;;;4934754;29;20180;-90
2022/03/30 07:34:33;;;;;;;;;;;12.80;99.90;;;;;;4935381;29;19938;-91
2022/03/30 07:36:59;;;;;;;;;;;12.80;99.90;;;;;;4934321;29;19911;-90
2022/03/30 07:39:24;;;;;;;;;;;12.80;99.90;;;;;;4933942;29;19919;-90
2022/03/30 07:41:50;;;;;;;;;;;13.00;99.90;;;;;;4935690;29;20398;-90
2022/03/30 07:44:15;;;;;;;;;;;13.20;99.90;;;;;;4933797;29;19911;-90
2022/03/30 07:46:41;;;;;;;;;;;13.40;99.90;;;;;;4934922;29;19914;-90
2022/03/30 07:49:07;;;;;;;;;;;13.40;99.90;;;;;;4933686;29;19911;-90
2022/03/30 07:51:32;;;;;;;;;;;13.50;99.90;;;;;;4934951;29;19943;-90
2022/03/30 07:53:58;;;;;;;;;;;13.60;99.90;;;;;;4935043;29;19934;-90
2022/03/30 07:56:25;;;;;;;;;;;13.60;99.90;;;;;;4933926;29;19911;-90
2022/03/30 07:58:51;;;;;;;;;;;13.60;99.90;;;;;;4933656;29;19922;-91
2022/03/30 08:01:17;;;;;;;;;;;13.60;99.90;;;;;;4948282;29;19899;-90
2022/03/30 08:03:43;;;;;;;;;;;13.50;99.90;;;;;;4943498;29;19918;-90
2022/03/30 08:06:09;;;;;;;;;;;13.40;99.90;;;;;;4936151;29;19958;-90
2022/03/30 08:08:35;;;;;;;;;;;13.40;99.90;;;;;;4933491;29;20002;-90
2022/03/30 08:11:01;;;;;;;;;;;13.40;99.90;;;;;;4934513;29;19946;-91
2022/03/30 08:13:27;;;;;;;;;;;13.50;99.90;;;;;;4933535;29;19961;-90
2022/03/30 08:15:52;;;;;;;;;;;13.40;99.90;;;;;;4933378;29;20177;-91
2022/03/30 08:18:18;;;;;;;;;;;13.50;99.90;;;;;;4933330;29;19919;-91
2022/03/30 08:23:27;;;;;;;;;;;13.60;99.90;;;;;;4935185;29;19918;-91
2022/03/30 08:25:53;;;;;;;;;;;13.60;99.90;;;;;;4933342;29;20296;-91
2022/03/30 08:28:18;;;;;;;;;;;13.70;99.90;;;;;;4934106;29;19951;-90
2022/03/30 08:30:44;;;;;;;;;;;13.70;99.90;;;;;;4933131;29;19911;-91
2022/03/30 08:33:10;;;;;;;;;;;13.60;99.90;;;;;;4933285;29;20387;-91
2022/03/30 08:35:36;;;;;;;;;;;13.50;99.90;;;;;;4933205;29;19911;-90
2022/03/30 08:38:03;;;;;;;;;;;13.50;99.90;;;;;;4933250;29;19925;-91
2022/03/30 08:40:28;;;;;;;;;;;13.50;99.90;;;;;;4933365;29;19940;-91
2022/03/30 08:42:55;;;;;;;;;;;13.60;99.90;;;;;;4932943;29;19914;-90
2022/03/30 08:45:21;;;;;;;;;;;13.70;99.90;;;;;;4932880;29;19910;-91
2022/03/30 08:47:47;;;;;;;;;;;13.50;99.90;;;;;;4933068;29;20295;-91
2022/03/30 08:50:12;;;;;;;;;;;13.60;99.90;;;;;;4933104;29;19910;-91
2022/03/30 08:52:38;;;;;;;;;;;13.70;99.90;;;;;;4932937;29;20279;-91
2022/03/30 08:55:05;;;;;;;;;;;13.80;99.90;;;;;;4933170;29;19911;-91
2022/03/30 08:57:30;;;;;;;;;;;13.90;99.90;;;;;;4932920;29;19922;-91
2022/03/30 09:00:02;;;;;;;;;;;14.00;99.90;;;;;;4932918;29;19911;-92
2022/03/30 09:02:35;;;;;;;;;;;13.90;99.90;;;;;;4934341;29;19919;-91
2022/03/30 09:05:18;;;;;;;;;;;13.90;99.90;;;;;;4933004;29;19966;-91
2022/03/30 09:07:48;;;;;;;;;;;13.90;99.90;;;;;;4933028;29;19911;-91
2022/03/30 09:10:21;;;;;;;;;;;14.20;99.90;;;;;;4932662;29;19911;-91
2022/03/30 09:12:48;;;;;;;;;;;14.40;99.90;;;;;;4932704;29;20451;-91
2022/03/30 09:15:14;;;;;;;;;;;14.50;99.90;;;;;;4934075;29;20152;-90
2022/03/30 09:17:40;;;;;;;;;;;14.40;99.90;;;;;;4932492;29;19911;-90
2022/03/30 09:20:06;;;;;;;;;;;14.30;99.90;;;;;;4933888;29;19911;-91
2022/03/30 09:22:33;;;;;;;;;;;14.20;99.90;;;;;;4933936;29;19911;-91
2022/03/30 09:25:00;;;;;;;;;;;14.20;99.90;;;;;;4932971;29;20282;-91
2022/03/30 09:27:26;;;;;;;;;;;14.00;99.90;;;;;;4932896;29;19911;-91
2022/03/30 09:29:51;;;;;;;;;;;14.10;99.90;;;;;;4932394;29;19923;-91
2022/03/30 09:32:17;;;;;;;;;;;14.20;99.90;;;;;;4941657;29;19934;-91
2022/03/30 09:34:52;;;;;;;;;;;14.30;99.90;;;;;;4940678;29;20515;-89
2022/03/30 09:37:18;;;;;;;;;;;14.30;99.90;;;;;;4932584;29;20046;-90
2022/03/30 09:39:44;;;;;;;;;;;14.50;99.90;;;;;;4932290;29;20009;-90
2022/03/30 09:42:10;;;;;;;;;;;14.60;99.90;;;;;;4934191;29;20386;-89
2022/03/30 09:44:46;;;;;;;;;;;14.50;99.90;;;;;;4932603;29;19910;-91
2022/03/30 09:47:12;;;;;;;;;;;14.50;99.90;;;;;;4932949;29;20001;-91
2022/03/30 09:49:39;;;;;;;;;;;14.50;99.90;;;;;;4932792;29;20473;-91
2022/03/30 09:52:11;;;;;;;;;;;14.50;99.90;;;;;;4945939;29;19911;-91
2022/03/30 09:54:57;;;;;;;;;;;14.30;99.90;;;;;;4957131;28;20375;-90
2022/03/30 09:57:24;;;;;;;;;;;14.20;99.90;;;;;;4920074;29;19932;-91
2022/03/30 10:00:02;;;;;;;;;;;14.30;99.90;;;;;;4936069;29;20037;-90
2022/03/30 10:02:29;;;;;;;;;;;14.30;99.90;;;;;;4937428;29;19966;-91
2022/03/30 10:04:55;;;;;;;;;;;14.20;99.90;;;;;;4936020;29;20194;-92
2022/03/30 10:07:22;;;;;;;;;;;14.20;99.90;;;;;;4936065;29;20013;-91
2022/03/30 10:09:48;;;;;;;;;;;14.20;99.90;;;;;;4937036;29;19997;-91
2022/03/30 10:12:17;;;;;;;;;;;14.30;99.90;;;;;;4937326;29;19938;-90
2022/03/30 10:14:46;;;;;;;;;;;14.30;99.90;;;;;;4936868;29;19915;-91
2022/03/30 10:17:13;;;;;;;;;;;14.30;99.90;;;;;;4937157;29;20178;-90
2022/03/30 10:19:42;;;;;;;;;;;14.30;99.90;;;;;;4935959;29;20348;-92
2022/03/30 10:22:25;;;;;;;;;;;14.50;99.90;;;;;;4937467;29;19911;-92
2022/03/30 10:25:02;;;;;;;;;;;14.40;99.90;;;;;;4935740;29;19965;-91
2022/03/30 10:27:47;;;;;;;;;;;14.50;99.90;;;;;;4936065;29;19918;-91
2022/03/30 10:30:12;;;;;;;;;;;14.50;99.90;;;;;;4951369;28;19923;-92
2022/03/30 10:32:38;;;;;;;;;;;14.50;99.90;;;;;;4935940;29;19965;-91
2022/03/30 10:35:07;;;;;;;;;;;14.70;99.90;;;;;;4935486;29;19911;-92
2022/03/30 10:37:34;;;;;;;;;;;14.70;99.90;;;;;;4952030;29;19911;-92
2022/03/30 10:40:03;;;;;;;;;;;14.70;99.90;;;;;;4937516;29;19926;-92
2022/03/30 10:42:47;;;;;;;;;;;14.80;99.90;;;;;;4951751;29;19911;-92
2022/03/30 10:45:28;;;;;;;;;;;14.80;99.90;;;;;;4951281;28;19911;-94
2022/03/30 10:48:06;;;;;;;;;;;14.90;99.90;;;;;;4951452;28;19911;-93
2022/03/30 10:50:37;;;;;;;;;;;15.00;99.90;;;;;;4951697;28;19917;-94
2022/03/30 10:53:41;;;;;;;;;;;;;;;;;;;;;
2022/03/30 11:02:18;;;;;;;;;;;14.70;99.90;;;;;;5162866;23;19927;-96
2022/03/30 11:07:52;;;;;;;;;;;14.80;99.90;;;;;;4877323;29;19939;-92
2022/03/30 11:11:28;;;;;;;;;;;15.10;99.90;;;;;;4880210;29;19955;-94
2022/03/30 11:13:43;;;;;;;;;;;15.50;99.90;;;;;;4932404;29;19915;-93
2022/03/30 11:16:15;;;;;;;;;;;15.50;99.90;;;;;;4917903;29;19965;-96
2022/03/30 11:22:21;;;;;;;;;;;15.80;99.90;;;;;;4925129;29;19911;-93
2022/03/30 11:30:51;;;;;;;;;;;16.20;99.90;;;;;;4933571;29;19911;-92
2022/03/30 11:36:26;;;;;;;;;;;15.60;99.90;;;;;;4927130;29;20332;-96
2022/03/30 11:39:23;;;;;;;;;;;;;;;;;;;;;
2022/03/30 11:42:01;;;;;;;;;;;15.30;99.90;;;;;;4944023;29;20001;-93
2022/03/30 11:54:05;;;;;;;;;;;15.70;99.90;;;;;;4875368;29;20211;-95
2022/03/30 12:05:42;;;;;;;;;;;15.90;99.90;;;;;;4935364;29;19962;-95
2022/03/30 12:08:14;;;;;;;;;;;15.90;99.90;;;;;;4919608;29;19915;-94
2022/03/30 12:11:03;;;;;;;;;;;;;;;;;;;;;
2022/03/30 12:13:43;;;;;;;;;;;15.20;99.90;;;;;;4935453;29;19917;-93
2022/03/30 12:16:32;;;;;;;;;;;15.00;99.90;;;;;;4918923;29;20249;-93
2022/03/30 12:19:00;;;;;;;;;;;14.80;99.90;;;;;;4917882;29;20380;-91
2022/03/30 12:21:30;;;;;;;;;;;14.60;99.90;;;;;;4918021;29;20155;-92
2022/03/30 12:24:06;;;;;;;;;;;14.40;99.90;;;;;;4933319;29;19911;-93
2022/03/30 12:26:57;;;;;;;;;;;14.50;99.90;;;;;;4918126;29;20368;-93
2022/03/30 12:29:44;;;;;;;;;;;14.80;99.90;;;;;;4918213;29;19911;-92
2022/03/30 12:32:26;;;;;;;;;;;14.90;99.90;;;;;;4918043;29;20354;-96
2022/03/30 12:35:16;;;;;;;;;;;15.10;99.90;;;;;;4951347;29;19962;-92
2022/03/30 12:41:03;;;;;;;;;;;15.00;99.90;;;;;;4950878;29;19921;-96
2022/03/30 12:43:45;;;;;;;;;;;15.20;99.90;;;;;;4951891;29;20310;-93
2022/03/30 12:46:31;;;;;;;;;;;15.00;99.90;;;;;;4951825;29;19950;-93
2022/03/30 12:49:28;;;;;;;;;;;;;;;;;;;;;
2022/03/30 12:58:33;;;;;;;;;;;15.10;99.90;;;;;;4866528;29;19920;-92
2022/03/30 13:01:25;;;;;;;;;;;15.10;99.90;;;;;;4924659;29;19916;-93
2022/03/30 13:04:04;;;;;;;;;;;15.10;99.90;;;;;;4917454;29;19923;-92
2022/03/30 13:06:43;;;;;;;;;;;15.00;99.90;;;;;;4917761;29;19921;-96
2022/03/30 13:09:24;;;;;;;;;;;14.80;99.90;;;;;;4918325;29;19910;-91
2022/03/30 13:11:57;;;;;;;;;;;14.70;99.90;;;;;;4917574;29;19911;-93
2022/03/30 13:14:26;;;;;;;;;;;14.70;99.90;;;;;;4914344;29;19911;-91
2022/03/30 13:17:11;;;;;;;;;;;14.70;99.90;;;;;;4933645;29;19911;-92
2022/03/30 13:22:24;;;;;;;;;;;14.80;99.90;;;;;;4927051;29;19912;-91
2022/03/30 13:25:19;;;;;;;;;;;15.20;99.90;;;;;;4917470;29;20366;-96
2022/03/30 13:27:51;;;;;;;;;;;15.20;99.90;;;;;;4917144;29;19911;-92
2022/03/30 13:30:45;;;;;;;;;;;15.20;99.90;;;;;;4918932;29;19997;-93
2022/03/30 13:33:16;;;;;;;;;;;15.00;99.90;;;;;;4958371;29;19899;-91
2022/03/30 13:35:59;;;;;;;;;;;14.80;99.90;;;;;;4921488;29;19911;-93
2022/03/30 13:38:30;;;;;;;;;;;14.70;99.90;;;;;;4920853;29;19996;-92
2022/03/30 13:40:56;;;;;;;;;;;14.60;99.90;;;;;;4921076;29;19911;-91
2022/03/30 13:43:24;;;;;;;;;;;14.50;99.90;;;;;;4921198;29;20253;-95
2022/03/30 13:46:07;;;;;;;;;;;14.40;99.90;;;;;;4920243;29;19911;-94
2022/03/30 13:48:36;;;;;;;;;;;14.30;99.90;;;;;;4920685;29;20288;-93
2022/03/30 13:56:55;;;;;;;;;;;14.10;99.90;;;;;;4937565;29;19918;-92
2022/03/30 13:59:30;;;;;;;;;;;14.20;99.90;;;;;;4920705;29;19919;-95
2022/03/30 14:05:49;;;;;;;;;;;14.10;99.90;;;;;;4896897;29;19911;-92
2022/03/30 14:08:14;;;;;;;;;;;14.20;99.90;;;;;;4897749;29;20446;-93
2022/03/30 14:10:58;;;;;;;;;;;14.10;99.90;;;;;;4923284;29;20360;-91
2022/03/30 14:13:36;;;;;;;;;;;13.90;99.90;;;;;;4934163;29;20379;-95
2022/03/30 14:19:04;;;;;;;;;;;14.20;99.90;;;;;;4910415;29;19975;-92
2022/03/30 14:21:32;;;;;;;;;;;14.30;99.90;;;;;;4932515;29;19911;-91
2022/03/30 14:26:57;;;;;;;;;;;14.30;99.90;;;;;;4907416;29;19911;-92
2022/03/30 14:29:36;;;;;;;;;;;14.60;99.90;;;;;;4931367;29;20459;-91
2022/03/30 14:32:07;;;;;;;;;;;14.70;99.90;;;;;;4932328;29;20001;-92
2022/03/30 14:34:41;;;;;;;;;;;14.90;99.90;;;;;;4933288;29;19911;-91
2022/03/30 14:37:26;;;;;;;;;;;;;;;;;;;;;
2022/03/30 14:40:01;;;;;;;;;;;14.80;99.90;;;;;;4920658;29;19919;-91
2022/03/30 14:48:41;;;;;;;;;;;15.10;99.90;;;;;;4917723;29;19967;-92
2022/03/30 14:51:58;;;;;;;;;;;;;;;;;;;;;
2022/03/30 14:54:24;;;;;;;;;;;15.00;99.90;;;;;;4882915;29;19912;-92
2022/03/30 14:56:50;;;;;;;;;;;14.70;99.90;;;;;;4932542;29;20005;-92
2022/03/30 14:59:37;;;;;;;;;;;14.30;99.90;;;;;;4932019;29;19919;-93
2022/03/30 15:02:04;;;;;;;;;;;14.20;99.90;;;;;;4917196;29;19926;-92
2022/03/30 15:04:30;;;;;;;;;;;13.90;99.90;;;;;;4931793;29;19919;-91
2022/03/30 15:06:55;;;;;;;;;;;13.50;99.90;;;;;;4931639;29;19911;-93
2022/03/30 15:09:21;;;;;;;;;;;13.20;99.90;;;;;;4931625;29;19918;-90
2022/03/30 15:11:46;;;;;;;;;;;13.00;99.90;;;;;;4916857;29;19959;-92
2022/03/30 15:14:12;;;;;;;;;;;12.90;99.90;;;;;;4917188;29;20284;-92
2022/03/30 15:16:38;;;;;;;;;;;12.90;99.90;;;;;;4931828;29;19915;-91
2022/03/30 15:19:03;;;;;;;;;;;13.00;99.90;;;;;;4931606;29;19926;-89
2022/03/30 15:21:29;;;;;;;;;;;13.00;99.90;;;;;;4921149;29;20014;-90
2022/03/30 15:23:55;;;;;;;;;;;12.80;99.90;;;;;;4942156;29;19934;-89
2022/03/30 15:26:20;;;;;;;;;;;12.80;99.90;;;;;;4916455;29;19911;-90
2022/03/30 15:28:46;;;;;;;;;;;13.00;99.90;;;;;;4916331;29;19911;-89
2022/03/30 15:31:12;;;;;;;;;;;13.10;99.90;;;;;;4930915;29;20291;-90
2022/03/30 15:33:39;;;;;;;;;;;13.20;99.90;;;;;;4931053;29;19915;-90
2022/03/30 15:36:05;;;;;;;;;;;13.20;99.90;;;;;;4930883;29;19961;-93
2022/03/30 15:38:39;;;;;;;;;;;13.30;99.90;;;;;;4918229;29;20014;-92
2022/03/30 15:41:05;;;;;;;;;;;13.30;99.90;;;;;;4940549;29;19954;-94
2022/03/30 15:43:30;;;;;;;;;;;13.30;99.90;;;;;;4936269;29;20014;-93
2022/03/30 15:45:56;;;;;;;;;;;13.40;99.90;;;;;;4939148;29;19964;-93
2022/03/30 15:48:23;;;;;;;;;;;13.50;99.90;;;;;;4939476;29;19915;-93
2022/03/30 15:50:49;;;;;;;;;;;13.50;99.90;;;;;;4937548;29;20376;-93
2022/03/30 15:53:19;;;;;;;;;;;13.50;99.90;;;;;;4939048;29;19899;-94
2022/03/30 15:55:45;;;;;;;;;;;13.50;99.90;;;;;;4928722;29;19915;-94
2022/03/30 15:58:10;;;;;;;;;;;13.50;99.90;;;;;;4942386;29;20277;-94
2022/03/30 16:00:36;;;;;;;;;;;13.50;99.90;;;;;;4939647;29;20418;-93
2022/03/30 16:03:06;;;;;;;;;;;13.60;99.90;;;;;;4944979;29;20342;-95
2022/03/30 16:05:34;;;;;;;;;;;13.50;99.90;;;;;;4926948;29;19950;-93
2022/03/30 16:12:09;;;;;;;;;;;13.40;99.90;;;;;;4946106;29;19906;-96
2022/03/30 16:13:35;;;;;;;;;;;13.40;99.90;;;;;;4944925;29;19899;-94
2022/03/30 16:16:01;;;;;;;;;;;13.30;99.90;;;;;;4929728;29;19899;-94
2022/03/30 16:18:27;;;;;;;;;;;13.30;99.90;;;;;;4926923;29;19982;-94
2022/03/30 16:20:57;;;;;;;;;;;13.30;99.90;;;;;;4944762;29;19899;-93
2022/03/30 16:23:31;;;;;;;;;;;13.50;99.90;;;;;;4949414;29;19921;-93
2022/03/30 16:25:58;;;;;;;;;;;13.40;99.90;;;;;;4929075;29;19966;-93
2022/03/30 16:28:23;;;;;;;;;;;13.40;99.90;;;;;;4927238;29;19915;-93
2022/03/30 16:30:50;;;;;;;;;;;13.50;99.90;;;;;;4928471;29;19922;-91
2022/03/30 16:33:16;;;;;;;;;;;13.60;99.90;;;;;;4927114;29;19938;-92
2022/03/30 16:35:42;;;;;;;;;;;13.60;99.90;;;;;;4924428;29;19911;-96
2022/03/30 16:38:15;;;;;;;;;;;13.60;99.90;;;;;;4927635;29;19930;-92
2022/03/30 16:40:41;;;;;;;;;;;13.80;99.90;;;;;;4939482;29;19921;-91
2022/03/30 16:43:06;;;;;;;;;;;13.90;99.90;;;;;;4942918;29;19911;-95
2022/03/30 16:45:38;;;;;;;;;;;14.20;99.90;;;;;;4920238;29;20386;-91
2022/03/30 16:48:05;;;;;;;;;;;14.50;99.90;;;;;;4919247;29;19911;-92
2022/03/30 16:50:35;;;;;;;;;;;14.50;99.90;;;;;;4919304;29;19911;-92
2022/03/30 16:53:04;;;;;;;;;;;14.70;99.90;;;;;;4917793;29;20279;-93
2022/03/30 16:55:53;;;;;;;;;;;14.70;99.90;;;;;;4917704;29;19918;-92
2022/03/30 16:58:28;;;;;;;;;;;14.80;99.90;;;;;;4918171;29;20292;-92
2022/03/30 17:01:12;;;;;;;;;;;14.80;99.90;;;;;;4918317;29;20287;-92
2022/03/30 17:03:39;;;;;;;;;;;14.60;99.90;;;;;;4914933;29;20039;-96
2022/03/30 17:06:07;;;;;;;;;;;14.30;99.90;;;;;;4918718;29;19922;-92
2022/03/30 17:14:13;;;;;;;;;;;13.90;99.90;;;;;;4928749;29;20395;-92
2022/03/30 17:16:55;;;;;;;;;;;;;;;;;;;;;
2022/03/30 17:19:39;;;;;;;;;;;13.80;99.90;;;;;;4918201;29;19919;-92
2022/03/30 17:22:13;;;;;;;;;;;13.90;99.90;;;;;;4934170;29;20291;-96
2022/03/30 17:24:45;;;;;;;;;;;13.90;99.90;;;;;;4933403;29;20384;-91
2022/03/30 17:27:16;;;;;;;;;;;13.80;99.90;;;;;;4933371;29;19958;-95
2022/03/30 17:30:00;;;;;;;;;;;13.70;99.90;;;;;;4933447;29;19918;-92
2022/03/30 17:32:38;;;;;;;;;;;13.50;99.90;;;;;;4934285;29;19911;-93
2022/03/30 17:41:01;;;;;;;;;;;13.20;99.90;;;;;;4911957;29;19971;-92
2022/03/30 17:44:08;;;;;;;;;;;13.20;99.90;;;;;;4934543;29;19943;-92
2022/03/30 17:59:45;;;;;;;;;;;12.90;99.90;;;;;;4891256;29;20270;-93
2022/03/30 18:02:50;;;;;;;;;;;12.90;99.90;;;;;;4894730;29;19924;-93
2022/03/30 18:09:08;;;;;;;;;;;;;;;;;;;;;
2022/03/30 18:11:39;;;;;;;;;;;12.90;99.90;;;;;;4870138;29;20058;-92
2022/03/30 18:14:32;;;;;;;;;;;12.90;99.90;;;;;;4908833;29;19955;-93
2022/03/30 18:17:09;;;;;;;;;;;12.90;99.90;;;;;;4892238;29;19919;-92
2022/03/30 18:19:34;;;;;;;;;;;12.80;99.90;;;;;;4880248;29;19919;-91
2022/03/30 18:22:00;;;;;;;;;;;12.90;99.90;;;;;;4889152;29;19916;-91
2022/03/30 18:24:26;;;;;;;;;;;12.90;99.90;;;;;;4926931;29;19911;-92
2022/03/30 18:26:52;;;;;;;;;;;12.80;99.90;;;;;;4911680;29;19907;-90
2022/03/30 18:29:17;;;;;;;;;;;12.80;99.90;;;;;;4911620;29;19974;-91
2022/03/30 18:31:43;;;;;;;;;;;12.80;99.90;;;;;;4911395;29;20229;-90
2022/03/30 18:34:09;;;;;;;;;;;12.80;99.90;;;;;;4911587;29;19903;-91
2022/03/30 18:36:36;;;;;;;;;;;12.70;99.90;;;;;;4928621;29;19907;-91
2022/03/30 18:39:02;;;;;;;;;;;12.70;99.90;;;;;;4928826;29;20114;-89
2022/03/30 18:41:28;;;;;;;;;;;12.70;99.90;;;;;;4928049;29;20086;-90
2022/03/30 18:43:54;;;;;;;;;;;12.80;99.90;;;;;;4911055;29;19914;-90
2022/03/30 18:46:19;;;;;;;;;;;12.80;99.90;;;;;;4927896;29;19977;-90
2022/03/30 18:48:45;;;;;;;;;;;12.80;99.90;;;;;;4928126;29;19947;-90
2022/03/30 18:51:11;;;;;;;;;;;12.80;99.90;;;;;;4910209;29;19907;-88
2022/03/30 18:53:37;;;;;;;;;;;12.80;99.90;;;;;;4927872;29;19955;-89
2022/03/30 18:56:03;;;;;;;;;;;12.80;99.90;;;;;;4926755;29;19907;-88
2022/03/30 18:58:29;;;;;;;;;;;12.80;99.90;;;;;;4927737;29;19915;-88
2022/03/30 19:00:55;;;;;;;;;;;12.80;99.90;;;;;;4910715;29;20222;-88
2022/03/30 19:03:23;;;;;;;;;;;12.70;99.90;;;;;;4927617;29;19982;-90
2022/03/30 19:05:51;;;;;;;;;;;12.60;99.90;;;;;;4915392;29;19907;-88
2022/03/30 19:08:16;;;;;;;;;;;12.50;99.90;;;;;;4946556;29;19911;-89
2022/03/30 19:10:42;;;;;;;;;;;12.60;99.90;;;;;;4946390;29;19964;-87
2022/03/30 19:13:11;;;;;;;;;;;12.60;99.90;;;;;;4961053;29;19920;-87
2022/03/30 19:15:38;;;;;;;;;;;12.60;99.90;;;;;;4965386;29;19952;-87
2022/03/30 19:18:04;;;;;;;;;;;12.60;99.90;;;;;;4964290;29;20059;-87
2022/03/30 19:20:30;;;;;;;;;;;12.60;99.90;;;;;;4963322;29;19907;-87
2022/03/30 19:22:56;;;;;;;;;;;12.60;99.90;;;;;;4962396;29;19913;-87
2022/03/30 19:25:24;;;;;;;;;;;12.50;99.90;;;;;;4964091;29;20137;-86
2022/03/30 19:27:50;;;;;;;;;;;12.50;99.90;;;;;;4957326;28;19997;-87
2022/03/30 19:30:17;;;;;;;;;;;12.60;99.90;;;;;;4954208;29;19911;-86
2022/03/30 19:32:44;;;;;;;;;;;12.60;99.90;;;;;;4954953;29;19910;-87
2022/03/30 19:35:10;;;;;;;;;;;12.60;99.90;;;;;;4960597;29;20150;-87
2022/03/30 19:37:36;;;;;;;;;;;12.60;99.90;;;;;;4957261;29;19910;-87
2022/03/30 19:40:02;;;;;;;;;;;12.60;99.90;;;;;;4954884;29;19914;-87
2022/03/30 19:42:28;;;;;;;;;;;12.60;99.90;;;;;;4957236;29;19917;-87
2022/03/30 19:44:53;;;;;;;;;;;12.60;99.90;;;;;;4959694;29;19906;-87
2022/03/30 19:47:19;;;;;;;;;;;12.70;99.90;;;;;;4945194;29;20121;-86
2022/03/30 19:49:46;;;;;;;;;;;12.70;99.90;;;;;;4945324;29;19975;-86
2022/03/30 19:52:12;;;;;;;;;;;12.70;99.90;;;;;;4953203;29;19910;-87
2022/03/30 19:54:37;;;;;;;;;;;12.70;99.90;;;;;;4958766;29;20323;-86
2022/03/30 19:57:04;;;;;;;;;;;12.70;99.90;;;;;;4953802;29;19978;-86
2022/03/30 19:59:30;;;;;;;;;;;12.60;99.90;;;;;;4942172;29;19921;-87
2022/03/30 20:01:56;;;;;;;;;;;12.50;99.90;;;;;;4959528;29;19912;-87
2022/03/30 20:04:21;;;;;;;;;;;12.40;99.90;;;;;;4960347;29;19974;-87
2022/03/30 20:06:47;;;;;;;;;;;12.40;99.90;;;;;;4963366;29;19906;-86
2022/03/30 20:09:13;;;;;;;;;;;12.40;99.90;;;;;;4964940;29;19914;-86
2022/03/30 20:11:38;;;;;;;;;;;12.20;99.90;;;;;;4962151;29;19910;-87
2022/03/30 20:14:05;;;;;;;;;;;12.30;99.90;;;;;;4959930;29;19906;-86
2022/03/30 20:16:31;;;;;;;;;;;12.30;99.90;;;;;;4962562;29;19906;-86
2022/03/30 20:18:56;;;;;;;;;;;12.30;99.90;;;;;;4943273;29;19921;-86
2022/03/30 20:21:22;;;;;;;;;;;12.20;99.90;;;;;;4959224;29;19937;-87
2022/03/30 20:23:48;;;;;;;;;;;12.20;99.90;;;;;;4959586;29;20106;-86
2022/03/30 20:26:14;;;;;;;;;;;12.20;99.90;;;;;;4960274;29;19913;-86
2022/03/30 20:28:42;;;;;;;;;;;12.20;99.90;;;;;;4962706;29;19906;-86
2022/03/30 20:31:08;;;;;;;;;;;12.20;99.90;;;;;;4962369;29;19928;-86
2022/03/30 20:33:33;;;;;;;;;;;12.20;99.90;;;;;;4962959;29;20214;-86
2022/03/30 20:35:59;;;;;;;;;;;12.20;99.90;;;;;;4945623;29;19906;-87
2022/03/30 20:38:26;;;;;;;;;;;12.20;99.90;;;;;;4962990;28;19958;-87
2022/03/30 20:40:53;;;;;;;;;;;12.20;99.90;;;;;;4961985;29;19911;-86
2022/03/30 20:43:18;;;;;;;;;;;12.30;99.90;;;;;;4945748;29;20098;-87
2022/03/30 20:45:44;;;;;;;;;;;12.30;99.90;;;;;;4945960;29;19934;-86
2022/03/30 20:48:10;;;;;;;;;;;12.30;99.90;;;;;;4963156;29;20048;-86
2022/03/30 20:50:35;;;;;;;;;;;12.20;99.90;;;;;;4961120;29;19913;-87
2022/03/30 20:53:01;;;;;;;;;;;12.30;99.90;;;;;;4931136;29;19906;-86
2022/03/30 20:55:26;;;;;;;;;;;12.30;99.90;;;;;;4934833;29;19915;-86
2022/03/30 20:57:52;;;;;;;;;;;12.30;99.90;;;;;;4940517;29;20183;-87
2022/03/30 21:00:17;;;;;;;;;;;12.20;99.90;;;;;;4940053;29;19915;-86
2022/03/30 21:02:43;;;;;;;;;;;12.30;99.90;;;;;;4942456;29;20225;-86
2022/03/30 21:05:09;;;;;;;;;;;12.20;99.90;;;;;;4939669;29;19914;-86
2022/03/30 21:07:37;;;;;;;;;;;12.20;99.90;;;;;;4937138;29;19907;-87
2022/03/30 21:10:03;;;;;;;;;;;12.10;99.90;;;;;;4936584;29;20193;-88
2022/03/30 21:12:28;;;;;;;;;;;12.10;99.90;;;;;;4933862;29;19915;-87
2022/03/30 21:14:54;;;;;;;;;;;12.10;99.90;;;;;;4934557;29;19918;-86
2022/03/30 21:17:20;;;;;;;;;;;12.10;99.90;;;;;;4934672;29;20439;-86
2022/03/30 21:19:45;;;;;;;;;;;12.10;99.90;;;;;;4922381;29;19919;-86
2022/03/30 21:22:11;;;;;;;;;;;12.10;99.90;;;;;;4919808;29;19954;-87
2022/03/30 21:24:36;;;;;;;;;;;12.10;99.90;;;;;;4944448;29;19907;-86
2022/03/30 21:27:03;;;;;;;;;;;12.10;99.90;;;;;;4943904;29;19910;-87
2022/03/30 21:29:28;;;;;;;;;;;12.10;99.90;;;;;;4942953;29;19954;-86